sensor_id;sensor_type;location;lat;lon;timestamp;temperature;humidity
18287;DHT22;9269;50.838;12.094;2023-03-04T00:02:02;4.70;46.80
18287;DHT22;9269;50.838;12.094;2023-03-04T00:04:31;4.40;47.20
18287;DHT22;9269;50.838;12.094;2023-03-04T00:06:59;4.40;47.10
18287;DHT22;9269;50.838;12.094;2023-03-04T00:09:28;4.40;47.00
18287;DHT22;9269;50.838;12.094;2023-03-04T00:11:57;4.40;46.90
18287;DHT22;9269;50.838;12.094;2023-03-04T00:14:26;4.30;47.30
18287;DHT22;9269;50.838;12.094;2023-03-04T00:16:56;4.50;47.20
18287;DHT22;9269;50.838;12.094;2023-03-04T00:19:25;4.30;47.30
18287;DHT22;9269;50.838;12.094;2023-03-04T00:21:53;4.40;47.00
18287;DHT22;9269;50.838;12.094;2023-03-04T00:24:22;4.40;47.30
18287;DHT22;9269;50.838;12.094;2023-03-04T00:26:51;4.50;47.50
18287;DHT22;9269;50.838;12.094;2023-03-04T00:29:21;4.20;47.70
18287;DHT22;9269;50.838;12.094;2023-03-04T00:31:49;4.20;47.80
18287;DHT22;9269;50.838;12.094;2023-03-04T00:34:18;4.40;47.80
18287;DHT22;9269;50.838;12.094;2023-03-04T00:36:47;4.30;47.80
18287;DHT22;9269;50.838;12.094;2023-03-04T00:39:15;4.40;48.00
18287;DHT22;9269;50.838;12.094;2023-03-04T00:41:44;4.40;47.90
18287;DHT22;9269;50.838;12.094;2023-03-04T00:44:14;4.50;47.90
18287;DHT22;9269;50.838;12.094;2023-03-04T00:46:44;4.40;47.90
18287;DHT22;9269;50.838;12.094;2023-03-04T00:49:13;4.30;47.70
18287;DHT22;9269;50.838;12.094;2023-03-04T00:51:41;4.30;47.80
18287;DHT22;9269;50.838;12.094;2023-03-04T00:54:10;4.50;48.00
18287;DHT22;9269;50.838;12.094;2023-03-04T00:56:38;4.10;48.30
18287;DHT22;9269;50.838;12.094;2023-03-04T00:59:07;4.50;48.20
18287;DHT22;9269;50.838;12.094;2023-03-04T01:01:35;4.50;47.80
18287;DHT22;9269;50.838;12.094;2023-03-04T01:04:05;4.40;48.00
18287;DHT22;9269;50.838;12.094;2023-03-04T01:06:33;4.30;48.20
18287;DHT22;9269;50.838;12.094;2023-03-04T01:09:02;4.50;47.90
18287;DHT22;9269;50.838;12.094;2023-03-04T01:11:30;4.50;48.00
18287;DHT22;9269;50.838;12.094;2023-03-04T01:13:59;4.50;47.60
18287;DHT22;9269;50.838;12.094;2023-03-04T01:16:27;4.30;47.60
18287;DHT22;9269;50.838;12.094;2023-03-04T01:18:56;4.30;47.80
18287;DHT22;9269;50.838;12.094;2023-03-04T01:21:26;4.40;47.70
18287;DHT22;9269;50.838;12.094;2023-03-04T01:23:56;4.40;47.90
18287;DHT22;9269;50.838;12.094;2023-03-04T01:26:24;4.40;48.20
18287;DHT22;9269;50.838;12.094;2023-03-04T01:28:52;4.50;48.00
18287;DHT22;9269;50.838;12.094;2023-03-04T01:31:21;4.50;48.40
18287;DHT22;9269;50.838;12.094;2023-03-04T01:33:49;4.40;47.90
18287;DHT22;9269;50.838;12.094;2023-03-04T01:36:17;4.40;47.80
18287;DHT22;9269;50.838;12.094;2023-03-04T01:38:47;4.20;48.10
18287;DHT22;9269;50.838;12.094;2023-03-04T01:41:16;4.40;48.10
18287;DHT22;9269;50.838;12.094;2023-03-04T01:43:46;4.40;48.40
18287;DHT22;9269;50.838;12.094;2023-03-04T01:46:14;4.40;47.70
18287;DHT22;9269;50.838;12.094;2023-03-04T01:48:43;4.30;48.10
18287;DHT22;9269;50.838;12.094;2023-03-04T01:51:14;4.20;48.20
18287;DHT22;9269;50.838;12.094;2023-03-04T01:53:43;4.20;47.90
18287;DHT22;9269;50.838;12.094;2023-03-04T01:56:18;4.20;47.90
18287;DHT22;9269;50.838;12.094;2023-03-04T01:59:06;4.40;48.10
18287;DHT22;9269;50.838;12.094;2023-03-04T02:01:35;4.40;47.90
18287;DHT22;9269;50.838;12.094;2023-03-04T02:04:04;4.50;48.30
18287;DHT22;9269;50.838;12.094;2023-03-04T02:06:34;4.50;48.10
18287;DHT22;9269;50.838;12.094;2023-03-04T02:09:03;4.40;48.30
18287;DHT22;9269;50.838;12.094;2023-03-04T02:11:33;4.30;48.10
18287;DHT22;9269;50.838;12.094;2023-03-04T02:14:03;4.40;48.10
18287;DHT22;9269;50.838;12.094;2023-03-04T02:16:31;4.40;48.20
18287;DHT22;9269;50.838;12.094;2023-03-04T02:19:00;4.30;48.10
18287;DHT22;9269;50.838;12.094;2023-03-04T02:21:32;4.30;48.00
18287;DHT22;9269;50.838;12.094;2023-03-04T02:24:05;4.50;48.00
18287;DHT22;9269;50.838;12.094;2023-03-04T02:26:37;4.30;48.30
18287;DHT22;9269;50.838;12.094;2023-03-04T02:29:09;4.40;48.00
18287;DHT22;9269;50.838;12.094;2023-03-04T02:31:39;4.30;48.20
18287;DHT22;9269;50.838;12.094;2023-03-04T02:34:12;4.40;47.90
18287;DHT22;9269;50.838;12.094;2023-03-04T02:36:42;4.50;48.40
18287;DHT22;9269;50.838;12.094;2023-03-04T02:39:13;4.30;48.10
18287;DHT22;9269;50.838;12.094;2023-03-04T02:41:43;4.60;47.80
18287;DHT22;9269;50.838;12.094;2023-03-04T02:44:16;4.50;48.30
18287;DHT22;9269;50.838;12.094;2023-03-04T02:46:45;4.40;48.20
18287;DHT22;9269;50.838;12.094;2023-03-04T02:49:14;4.30;48.10
18287;DHT22;9269;50.838;12.094;2023-03-04T02:51:42;4.70;47.80
18287;DHT22;9269;50.838;12.094;2023-03-04T02:54:14;4.50;48.30
18287;DHT22;9269;50.838;12.094;2023-03-04T02:56:48;4.30;48.20
18287;DHT22;9269;50.838;12.094;2023-03-04T02:59:17;4.40;48.00
18287;DHT22;9269;50.838;12.094;2023-03-04T03:01:46;4.40;48.10
18287;DHT22;9269;50.838;12.094;2023-03-04T03:04:15;4.60;48.10
18287;DHT22;9269;50.838;12.094;2023-03-04T03:06:44;4.30;48.10
18287;DHT22;9269;50.838;12.094;2023-03-04T03:09:12;4.40;48.40
18287;DHT22;9269;50.838;12.094;2023-03-04T03:11:41;4.50;48.00
18287;DHT22;9269;50.838;12.094;2023-03-04T03:14:10;4.40;48.00
18287;DHT22;9269;50.838;12.094;2023-03-04T03:16:40;4.50;48.30
18287;DHT22;9269;50.838;12.094;2023-03-04T03:19:09;4.40;48.10
18287;DHT22;9269;50.838;12.094;2023-03-04T03:21:37;4.50;48.20
18287;DHT22;9269;50.838;12.094;2023-03-04T03:24:05;4.60;48.10
18287;DHT22;9269;50.838;12.094;2023-03-04T03:26:50;4.50;48.10
18287;DHT22;9269;50.838;12.094;2023-03-04T03:29:20;4.60;47.90
18287;DHT22;9269;50.838;12.094;2023-03-04T03:31:54;4.60;48.10
18287;DHT22;9269;50.838;12.094;2023-03-04T03:34:23;4.60;48.20
18287;DHT22;9269;50.838;12.094;2023-03-04T03:37:16;4.70;48.20
18287;DHT22;9269;50.838;12.094;2023-03-04T03:39:44;4.40;48.00
18287;DHT22;9269;50.838;12.094;2023-03-04T03:42:12;4.60;48.10
18287;DHT22;9269;50.838;12.094;2023-03-04T03:44:42;4.40;48.20
18287;DHT22;9269;50.838;12.094;2023-03-04T03:47:10;4.50;48.10
18287;DHT22;9269;50.838;12.094;2023-03-04T03:49:40;4.60;48.20
18287;DHT22;9269;50.838;12.094;2023-03-04T03:52:09;4.70;48.40
18287;DHT22;9269;50.838;12.094;2023-03-04T03:54:37;4.70;48.40
18287;DHT22;9269;50.838;12.094;2023-03-04T03:57:07;4.40;48.40
18287;DHT22;9269;50.838;12.094;2023-03-04T03:59:35;4.50;48.50
18287;DHT22;9269;50.838;12.094;2023-03-04T04:02:05;4.50;48.10
18287;DHT22;9269;50.838;12.094;2023-03-04T04:04:33;4.40;48.10
18287;DHT22;9269;50.838;12.094;2023-03-04T04:07:01;4.50;48.20
18287;DHT22;9269;50.838;12.094;2023-03-04T04:09:29;4.60;48.40
18287;DHT22;9269;50.838;12.094;2023-03-04T04:11:58;4.40;48.60
18287;DHT22;9269;50.838;12.094;2023-03-04T04:14:26;4.60;48.60
18287;DHT22;9269;50.838;12.094;2023-03-04T04:16:54;4.50;48.40
18287;DHT22;9269;50.838;12.094;2023-03-04T04:19:24;4.70;48.40
18287;DHT22;9269;50.838;12.094;2023-03-04T04:21:52;4.50;48.40
18287;DHT22;9269;50.838;12.094;2023-03-04T04:24:20;4.70;48.60
18287;DHT22;9269;50.838;12.094;2023-03-04T04:26:49;4.70;48.40
18287;DHT22;9269;50.838;12.094;2023-03-04T04:29:17;4.70;48.10
18287;DHT22;9269;50.838;12.094;2023-03-04T04:31:46;4.70;48.30
18287;DHT22;9269;50.838;12.094;2023-03-04T04:34:14;4.50;48.70
18287;DHT22;9269;50.838;12.094;2023-03-04T04:36:44;4.60;48.30
18287;DHT22;9269;50.838;12.094;2023-03-04T04:39:12;4.50;48.80
18287;DHT22;9269;50.838;12.094;2023-03-04T04:41:42;4.60;48.50
18287;DHT22;9269;50.838;12.094;2023-03-04T04:44:11;4.60;48.70
18287;DHT22;9269;50.838;12.094;2023-03-04T04:46:40;4.50;48.90
18287;DHT22;9269;50.838;12.094;2023-03-04T04:49:12;4.50;48.90
18287;DHT22;9269;50.838;12.094;2023-03-04T04:51:40;4.60;49.20
18287;DHT22;9269;50.838;12.094;2023-03-04T04:54:12;4.50;49.00
18287;DHT22;9269;50.838;12.094;2023-03-04T04:56:41;4.50;48.90
18287;DHT22;9269;50.838;12.094;2023-03-04T04:59:09;4.50;48.60
18287;DHT22;9269;50.838;12.094;2023-03-04T05:01:37;4.40;49.30
18287;DHT22;9269;50.838;12.094;2023-03-04T05:04:07;4.60;49.00
18287;DHT22;9269;50.838;12.094;2023-03-04T05:06:35;4.60;49.00
18287;DHT22;9269;50.838;12.094;2023-03-04T05:09:04;4.60;48.90
18287;DHT22;9269;50.838;12.094;2023-03-04T05:11:34;4.60;49.20
18287;DHT22;9269;50.838;12.094;2023-03-04T05:14:02;4.80;49.50
18287;DHT22;9269;50.838;12.094;2023-03-04T05:16:31;4.60;49.00
18287;DHT22;9269;50.838;12.094;2023-03-04T05:18:59;4.80;48.70
18287;DHT22;9269;50.838;12.094;2023-03-04T05:21:27;4.80;49.20
18287;DHT22;9269;50.838;12.094;2023-03-04T05:23:55;4.80;49.20
18287;DHT22;9269;50.838;12.094;2023-03-04T05:26:24;4.70;48.90
18287;DHT22;9269;50.838;12.094;2023-03-04T05:28:53;4.60;49.20
18287;DHT22;9269;50.838;12.094;2023-03-04T05:31:21;4.80;49.30
18287;DHT22;9269;50.838;12.094;2023-03-04T05:33:50;4.60;49.30
18287;DHT22;9269;50.838;12.094;2023-03-04T05:36:18;4.80;49.00
18287;DHT22;9269;50.838;12.094;2023-03-04T05:38:48;4.80;49.20
18287;DHT22;9269;50.838;12.094;2023-03-04T05:41:16;4.80;49.20
18287;DHT22;9269;50.838;12.094;2023-03-04T05:43:46;4.50;49.20
18287;DHT22;9269;50.838;12.094;2023-03-04T05:46:17;4.80;49.30
18287;DHT22;9269;50.838;12.094;2023-03-04T05:48:50;4.80;49.00
18287;DHT22;9269;50.838;12.094;2023-03-04T05:51:19;4.60;49.20
18287;DHT22;9269;50.838;12.094;2023-03-04T05:53:48;4.70;49.40
18287;DHT22;9269;50.838;12.094;2023-03-04T05:56:18;4.90;48.80
18287;DHT22;9269;50.838;12.094;2023-03-04T05:58:47;4.70;49.50
18287;DHT22;9269;50.838;12.094;2023-03-04T06:01:17;4.60;49.20
18287;DHT22;9269;50.838;12.094;2023-03-04T06:03:46;4.70;49.00
18287;DHT22;9269;50.838;12.094;2023-03-04T06:06:15;4.80;48.90
18287;DHT22;9269;50.838;12.094;2023-03-04T06:08:45;4.80;48.80
18287;DHT22;9269;50.838;12.094;2023-03-04T06:11:13;4.60;49.00
18287;DHT22;9269;50.838;12.094;2023-03-04T06:13:42;4.90;48.60
18287;DHT22;9269;50.838;12.094;2023-03-04T06:16:10;4.80;48.90
18287;DHT22;9269;50.838;12.094;2023-03-04T06:18:40;4.90;48.90
18287;DHT22;9269;50.838;12.094;2023-03-04T06:21:08;4.80;48.90
18287;DHT22;9269;50.838;12.094;2023-03-04T06:23:36;4.70;49.40
18287;DHT22;9269;50.838;12.094;2023-03-04T06:26:05;4.70;48.90
18287;DHT22;9269;50.838;12.094;2023-03-04T06:28:35;4.90;48.80
18287;DHT22;9269;50.838;12.094;2023-03-04T06:31:03;4.80;48.70
18287;DHT22;9269;50.838;12.094;2023-03-04T06:33:32;4.80;49.10
18287;DHT22;9269;50.838;12.094;2023-03-04T06:36:01;4.60;49.40
18287;DHT22;9269;50.838;12.094;2023-03-04T06:38:30;5.00;49.30
18287;DHT22;9269;50.838;12.094;2023-03-04T06:41:05;4.70;49.20
18287;DHT22;9269;50.838;12.094;2023-03-04T06:43:34;4.90;49.20
18287;DHT22;9269;50.838;12.094;2023-03-04T06:46:03;4.90;49.10
18287;DHT22;9269;50.838;12.094;2023-03-04T06:48:32;5.00;49.20
18287;DHT22;9269;50.838;12.094;2023-03-04T06:51:05;4.80;49.00
18287;DHT22;9269;50.838;12.094;2023-03-04T06:53:40;4.90;49.00
18287;DHT22;9269;50.838;12.094;2023-03-04T06:56:10;5.10;49.20
18287;DHT22;9269;50.838;12.094;2023-03-04T06:58:40;4.90;48.80
18287;DHT22;9269;50.838;12.094;2023-03-04T07:01:13;5.00;48.80
18287;DHT22;9269;50.838;12.094;2023-03-04T07:03:42;5.00;48.60
18287;DHT22;9269;50.838;12.094;2023-03-04T07:06:13;5.00;48.80
18287;DHT22;9269;50.838;12.094;2023-03-04T07:08:44;5.10;48.70
18287;DHT22;9269;50.838;12.094;2023-03-04T07:11:13;5.20;48.80
18287;DHT22;9269;50.838;12.094;2023-03-04T07:13:42;5.10;48.80
18287;DHT22;9269;50.838;12.094;2023-03-04T07:16:13;5.20;48.60
18287;DHT22;9269;50.838;12.094;2023-03-04T07:18:44;5.20;48.70
18287;DHT22;9269;50.838;12.094;2023-03-04T07:21:15;5.10;48.80
18287;DHT22;9269;50.838;12.094;2023-03-04T07:23:44;5.10;48.90
18287;DHT22;9269;50.838;12.094;2023-03-04T07:26:13;5.10;48.90
18287;DHT22;9269;50.838;12.094;2023-03-04T07:28:41;5.20;48.90
18287;DHT22;9269;50.838;12.094;2023-03-04T07:31:11;5.20;48.70
18287;DHT22;9269;50.838;12.094;2023-03-04T07:33:43;5.30;49.10
18287;DHT22;9269;50.838;12.094;2023-03-04T07:36:11;5.20;48.60
18287;DHT22;9269;50.838;12.094;2023-03-04T07:38:43;5.30;48.40
18287;DHT22;9269;50.838;12.094;2023-03-04T07:41:12;5.20;48.70
18287;DHT22;9269;50.838;12.094;2023-03-04T07:43:40;5.30;48.60
18287;DHT22;9269;50.838;12.094;2023-03-04T07:46:09;5.20;48.50
18287;DHT22;9269;50.838;12.094;2023-03-04T07:48:38;5.40;48.60
18287;DHT22;9269;50.838;12.094;2023-03-04T07:51:08;5.30;48.70
18287;DHT22;9269;50.838;12.094;2023-03-04T07:53:39;5.50;48.70
18287;DHT22;9269;50.838;12.094;2023-03-04T07:56:11;5.50;48.20
18287;DHT22;9269;50.838;12.094;2023-03-04T07:58:40;5.30;48.50
18287;DHT22;9269;50.838;12.094;2023-03-04T08:01:09;5.30;48.60
18287;DHT22;9269;50.838;12.094;2023-03-04T08:03:41;5.40;48.40
18287;DHT22;9269;50.838;12.094;2023-03-04T08:06:11;5.30;48.60
18287;DHT22;9269;50.838;12.094;2023-03-04T08:08:40;5.50;48.60
18287;DHT22;9269;50.838;12.094;2023-03-04T08:11:13;5.60;48.70
18287;DHT22;9269;50.838;12.094;2023-03-04T08:13:42;5.70;48.70
18287;DHT22;9269;50.838;12.094;2023-03-04T08:16:12;5.70;48.50
18287;DHT22;9269;50.838;12.094;2023-03-04T08:18:42;5.60;48.40
18287;DHT22;9269;50.838;12.094;2023-03-04T08:21:11;5.50;48.70
18287;DHT22;9269;50.838;12.094;2023-03-04T08:23:40;5.70;48.90
18287;DHT22;9269;50.838;12.094;2023-03-04T08:26:13;5.60;48.60
18287;DHT22;9269;50.838;12.094;2023-03-04T08:28:41;5.50;48.80
18287;DHT22;9269;50.838;12.094;2023-03-04T08:31:12;5.60;48.70
18287;DHT22;9269;50.838;12.094;2023-03-04T08:33:41;5.80;48.80
18287;DHT22;9269;50.838;12.094;2023-03-04T08:36:10;5.80;48.60
18287;DHT22;9269;50.838;12.094;2023-03-04T08:38:38;5.70;48.50
18287;DHT22;9269;50.838;12.094;2023-03-04T08:41:07;5.70;48.60
18287;DHT22;9269;50.838;12.094;2023-03-04T08:43:36;5.70;48.70
18287;DHT22;9269;50.838;12.094;2023-03-04T08:46:05;5.90;48.50
18287;DHT22;9269;50.838;12.094;2023-03-04T08:48:34;5.90;48.40
18287;DHT22;9269;50.838;12.094;2023-03-04T08:51:07;6.00;48.30
18287;DHT22;9269;50.838;12.094;2023-03-04T08:53:36;5.90;48.40
18287;DHT22;9269;50.838;12.094;2023-03-04T08:56:06;5.90;48.70
18287;DHT22;9269;50.838;12.094;2023-03-04T08:58:35;5.90;48.60
18287;DHT22;9269;50.838;12.094;2023-03-04T09:01:06;6.30;48.90
18287;DHT22;9269;50.838;12.094;2023-03-04T09:03:36;6.20;48.70
18287;DHT22;9269;50.838;12.094;2023-03-04T09:06:06;6.20;48.70
18287;DHT22;9269;50.838;12.094;2023-03-04T09:08:35;6.10;48.70
18287;DHT22;9269;50.838;12.094;2023-03-04T09:11:04;6.10;48.70
18287;DHT22;9269;50.838;12.094;2023-03-04T09:13:33;6.20;48.80
18287;DHT22;9269;50.838;12.094;2023-03-04T09:16:02;6.20;48.60
18287;DHT22;9269;50.838;12.094;2023-03-04T09:18:32;6.30;48.80
18287;DHT22;9269;50.838;12.094;2023-03-04T09:21:03;6.50;48.60
18287;DHT22;9269;50.838;12.094;2023-03-04T09:23:31;6.60;48.70
18287;DHT22;9269;50.838;12.094;2023-03-04T09:26:00;6.60;49.00
18287;DHT22;9269;50.838;12.094;2023-03-04T09:28:28;6.70;48.80
18287;DHT22;9269;50.838;12.094;2023-03-04T09:30:58;6.70;48.20
18287;DHT22;9269;50.838;12.094;2023-03-04T09:33:27;6.80;48.30
18287;DHT22;9269;50.838;12.094;2023-03-04T09:35:57;6.90;48.50
18287;DHT22;9269;50.838;12.094;2023-03-04T09:38:27;6.80;48.60
18287;DHT22;9269;50.838;12.094;2023-03-04T09:40:58;6.80;48.20
18287;DHT22;9269;50.838;12.094;2023-03-04T09:43:52;6.90;48.50
18287;DHT22;9269;50.838;12.094;2023-03-04T09:46:28;7.00;48.60
18287;DHT22;9269;50.838;12.094;2023-03-04T09:49:01;7.10;48.10
18287;DHT22;9269;50.838;12.094;2023-03-04T09:51:48;7.20;48.60
18287;DHT22;9269;50.838;12.094;2023-03-04T09:54:32;7.20;48.40
18287;DHT22;9269;50.838;12.094;2023-03-04T09:57:16;7.40;48.40
18287;DHT22;9269;50.838;12.094;2023-03-04T09:59:52;7.30;48.30
18287;DHT22;9269;50.838;12.094;2023-03-04T10:02:32;7.50;48.40
18287;DHT22;9269;50.838;12.094;2023-03-04T10:05:05;7.50;48.50
18287;DHT22;9269;50.838;12.094;2023-03-04T10:07:39;7.50;48.50
18287;DHT22;9269;50.838;12.094;2023-03-04T10:10:13;7.60;48.40
18287;DHT22;9269;50.838;12.094;2023-03-04T10:12:47;7.80;48.20
18287;DHT22;9269;50.838;12.094;2023-03-04T10:15:22;7.70;48.60
18287;DHT22;9269;50.838;12.094;2023-03-04T10:17:55;7.80;48.30
18287;DHT22;9269;50.838;12.094;2023-03-04T10:20:32;7.90;48.40
18287;DHT22;9269;50.838;12.094;2023-03-04T10:23:14;7.80;48.20
18287;DHT22;9269;50.838;12.094;2023-03-04T10:25:48;7.90;48.40
18287;DHT22;9269;50.838;12.094;2023-03-04T10:28:24;7.80;48.20
18287;DHT22;9269;50.838;12.094;2023-03-04T10:30:59;8.00;47.80
18287;DHT22;9269;50.838;12.094;2023-03-04T10:33:30;8.10;47.80
18287;DHT22;9269;50.838;12.094;2023-03-04T10:36:03;8.10;47.70
18287;DHT22;9269;50.838;12.094;2023-03-04T10:38:35;8.10;47.60
18287;DHT22;9269;50.838;12.094;2023-03-04T10:41:11;8.10;48.00
18287;DHT22;9269;50.838;12.094;2023-03-04T10:43:40;8.20;47.80
18287;DHT22;9269;50.838;12.094;2023-03-04T10:46:12;8.10;47.70
18287;DHT22;9269;50.838;12.094;2023-03-04T10:48:44;7.90;47.50
18287;DHT22;9269;50.838;12.094;2023-03-04T10:51:18;8.20;47.70
18287;DHT22;9269;50.838;12.094;2023-03-04T10:53:50;8.10;47.40
18287;DHT22;9269;50.838;12.094;2023-03-04T10:56:35;8.10;47.40
18287;DHT22;9269;50.838;12.094;2023-03-04T10:59:39;8.30;47.20
18287;DHT22;9269;50.838;12.094;2023-03-04T11:02:20;8.20;47.70
18287;DHT22;9269;50.838;12.094;2023-03-04T11:04:51;8.30;47.30
18287;DHT22;9269;50.838;12.094;2023-03-04T11:07:21;8.20;47.60
18287;DHT22;9269;50.838;12.094;2023-03-04T11:09:52;8.30;47.50
18287;DHT22;9269;50.838;12.094;2023-03-04T11:12:32;8.40;47.40
18287;DHT22;9269;50.838;12.094;2023-03-04T11:15:02;8.50;47.50
18287;DHT22;9269;50.838;12.094;2023-03-04T11:17:42;8.40;47.30
18287;DHT22;9269;50.838;12.094;2023-03-04T11:20:15;8.40;47.20
18287;DHT22;9269;50.838;12.094;2023-03-04T11:22:45;8.30;47.20
18287;DHT22;9269;50.838;12.094;2023-03-04T11:25:22;8.40;47.30
18287;DHT22;9269;50.838;12.094;2023-03-04T11:27:54;8.50;47.10
18287;DHT22;9269;50.838;12.094;2023-03-04T11:30:31;8.40;46.90
18287;DHT22;9269;50.838;12.094;2023-03-04T11:33:12;8.60;46.90
18287;DHT22;9269;50.838;12.094;2023-03-04T11:35:53;8.50;47.30
18287;DHT22;9269;50.838;12.094;2023-03-04T11:38:29;8.60;47.00
18287;DHT22;9269;50.838;12.094;2023-03-04T11:41:04;8.40;47.00
18287;DHT22;9269;50.838;12.094;2023-03-04T11:43:37;8.60;47.10
18287;DHT22;9269;50.838;12.094;2023-03-04T11:46:35;8.60;46.90
18287;DHT22;9269;50.838;12.094;2023-03-04T11:49:20;8.60;47.10
18287;DHT22;9269;50.838;12.094;2023-03-04T11:51:58;8.60;47.00
18287;DHT22;9269;50.838;12.094;2023-03-04T11:54:37;8.70;46.90
18287;DHT22;9269;50.838;12.094;2023-03-04T11:57:26;8.60;47.00
18287;DHT22;9269;50.838;12.094;2023-03-04T12:00:12;8.70;47.00
18287;DHT22;9269;50.838;12.094;2023-03-04T12:02:50;8.70;47.20
18287;DHT22;9269;50.838;12.094;2023-03-04T12:05:26;8.70;47.10
18287;DHT22;9269;50.838;12.094;2023-03-04T12:08:12;8.60;47.00
18287;DHT22;9269;50.838;12.094;2023-03-04T12:10:51;8.70;46.70
18287;DHT22;9269;50.838;12.094;2023-03-04T12:16:39;8.80;47.00
18287;DHT22;9269;50.838;12.094;2023-03-04T12:19:20;8.70;46.60
18287;DHT22;9269;50.838;12.094;2023-03-04T12:22:02;8.70;47.00
18287;DHT22;9269;50.838;12.094;2023-03-04T12:24:46;8.80;46.70
18287;DHT22;9269;50.838;12.094;2023-03-04T12:27:24;8.80;47.00
18287;DHT22;9269;50.838;12.094;2023-03-04T12:29:57;8.80;47.10
18287;DHT22;9269;50.838;12.094;2023-03-04T12:32:35;8.80;47.00
18287;DHT22;9269;50.838;12.094;2023-03-04T12:35:29;8.80;46.80
18287;DHT22;9269;50.838;12.094;2023-03-04T12:38:13;8.90;46.80
18287;DHT22;9269;50.838;12.094;2023-03-04T12:40:53;8.80;46.60
18287;DHT22;9269;50.838;12.094;2023-03-04T12:43:35;8.90;46.50
18287;DHT22;9269;50.838;12.094;2023-03-04T12:46:36;8.80;46.30
18287;DHT22;9269;50.838;12.094;2023-03-04T12:49:31;8.90;46.80
18287;DHT22;9269;50.838;12.094;2023-03-04T12:52:09;8.90;46.70
18287;DHT22;9269;50.838;12.094;2023-03-04T12:54:44;8.80;46.60
18287;DHT22;9269;50.838;12.094;2023-03-04T12:57:15;8.90;46.60
18287;DHT22;9269;50.838;12.094;2023-03-04T12:59:50;8.90;46.70
18287;DHT22;9269;50.838;12.094;2023-03-04T13:02:33;9.00;46.70
18287;DHT22;9269;50.838;12.094;2023-03-04T13:05:18;9.00;46.70
18287;DHT22;9269;50.838;12.094;2023-03-04T13:07:55;8.90;46.60
18287;DHT22;9269;50.838;12.094;2023-03-04T13:10:26;9.10;46.40
18287;DHT22;9269;50.838;12.094;2023-03-04T13:12:56;9.00;47.00
18287;DHT22;9269;50.838;12.094;2023-03-04T13:15:31;9.10;46.60
18287;DHT22;9269;50.838;12.094;2023-03-04T13:18:01;9.00;46.40
18287;DHT22;9269;50.838;12.094;2023-03-04T13:20:37;9.00;46.40
18287;DHT22;9269;50.838;12.094;2023-03-04T13:23:26;9.00;46.60
18287;DHT22;9269;50.838;12.094;2023-03-04T13:26:16;9.10;46.80
18287;DHT22;9269;50.838;12.094;2023-03-04T13:28:51;9.00;47.00
18287;DHT22;9269;50.838;12.094;2023-03-04T13:31:24;9.00;46.70
18287;DHT22;9269;50.838;12.094;2023-03-04T13:33:56;9.10;46.70
18287;DHT22;9269;50.838;12.094;2023-03-04T13:39:33;9.00;46.80
18287;DHT22;9269;50.838;12.094;2023-03-04T13:42:38;9.00;46.80
18287;DHT22;9269;50.838;12.094;2023-03-04T13:45:28;9.10;46.60
18287;DHT22;9269;50.838;12.094;2023-03-04T13:47:58;9.10;46.70
18287;DHT22;9269;50.838;12.094;2023-03-04T13:50:40;9.00;47.20
18287;DHT22;9269;50.838;12.094;2023-03-04T13:56:31;9.20;46.80
18287;DHT22;9269;50.838;12.094;2023-03-04T14:02:10;9.30;46.90
18287;DHT22;9269;50.838;12.094;2023-03-04T14:04:40;9.40;47.00
18287;DHT22;9269;50.838;12.094;2023-03-04T14:07:27;9.30;46.70
18287;DHT22;9269;50.838;12.094;2023-03-04T14:09:58;9.30;46.60
18287;DHT22;9269;50.838;12.094;2023-03-04T14:12:31;9.40;46.40
18287;DHT22;9269;50.838;12.094;2023-03-04T14:15:02;9.30;46.70
18287;DHT22;9269;50.838;12.094;2023-03-04T14:17:34;9.40;46.40
18287;DHT22;9269;50.838;12.094;2023-03-04T14:20:06;9.40;46.70
18287;DHT22;9269;50.838;12.094;2023-03-04T14:22:48;9.50;46.40
18287;DHT22;9269;50.838;12.094;2023-03-04T14:25:21;9.40;46.40
18287;DHT22;9269;50.838;12.094;2023-03-04T14:28:01;9.50;46.40
18287;DHT22;9269;50.838;12.094;2023-03-04T14:30:31;9.50;46.60
18287;DHT22;9269;50.838;12.094;2023-03-04T14:33:16;9.50;46.50
18287;DHT22;9269;50.838;12.094;2023-03-04T14:35:48;9.50;46.10
18287;DHT22;9269;50.838;12.094;2023-03-04T14:38:22;9.50;46.60
18287;DHT22;9269;50.838;12.094;2023-03-04T14:41:15;9.50;46.50
18287;DHT22;9269;50.838;12.094;2023-03-04T14:43:50;9.50;46.30
18287;DHT22;9269;50.838;12.094;2023-03-04T14:46:22;9.50;46.10
18287;DHT22;9269;50.838;12.094;2023-03-04T14:48:54;9.60;46.30
18287;DHT22;9269;50.838;12.094;2023-03-04T14:51:33;9.40;46.40
18287;DHT22;9269;50.838;12.094;2023-03-04T14:54:04;9.40;46.00
18287;DHT22;9269;50.838;12.094;2023-03-04T14:56:34;9.40;46.00
18287;DHT22;9269;50.838;12.094;2023-03-04T14:59:04;9.50;46.20
18287;DHT22;9269;50.838;12.094;2023-03-04T15:01:33;9.40;46.00
18287;DHT22;9269;50.838;12.094;2023-03-04T15:04:06;9.40;45.90
18287;DHT22;9269;50.838;12.094;2023-03-04T15:06:37;9.30;45.70
18287;DHT22;9269;50.838;12.094;2023-03-04T15:09:07;9.30;46.20
18287;DHT22;9269;50.838;12.094;2023-03-04T15:11:46;9.30;46.00
18287;DHT22;9269;50.838;12.094;2023-03-04T15:14:45;9.30;46.00
18287;DHT22;9269;50.838;12.094;2023-03-04T15:17:23;9.20;46.50
18287;DHT22;9269;50.838;12.094;2023-03-04T15:20:00;9.20;46.60
18287;DHT22;9269;50.838;12.094;2023-03-04T15:22:55;9.20;46.40
18287;DHT22;9269;50.838;12.094;2023-03-04T15:25:24;9.10;46.40
18287;DHT22;9269;50.838;12.094;2023-03-04T15:27:54;9.20;46.70
18287;DHT22;9269;50.838;12.094;2023-03-04T15:30:25;9.20;46.60
18287;DHT22;9269;50.838;12.094;2023-03-04T15:32:55;9.20;47.10
18287;DHT22;9269;50.838;12.094;2023-03-04T15:35:27;9.10;46.90
18287;DHT22;9269;50.838;12.094;2023-03-04T15:37:56;9.20;46.80
18287;DHT22;9269;50.838;12.094;2023-03-04T15:40:28;9.10;47.00
18287;DHT22;9269;50.838;12.094;2023-03-04T15:42:59;9.00;47.20
18287;DHT22;9269;50.838;12.094;2023-03-04T15:45:31;9.00;47.30
18287;DHT22;9269;50.838;12.094;2023-03-04T15:48:03;9.00;47.30
18287;DHT22;9269;50.838;12.094;2023-03-04T15:50:35;9.00;47.30
18287;DHT22;9269;50.838;12.094;2023-03-04T15:53:07;9.00;47.20
18287;DHT22;9269;50.838;12.094;2023-03-04T15:55:36;9.00;47.50
18287;DHT22;9269;50.838;12.094;2023-03-04T15:58:05;9.00;47.50
18287;DHT22;9269;50.838;12.094;2023-03-04T16:00:35;8.90;47.10
18287;DHT22;9269;50.838;12.094;2023-03-04T16:03:04;8.90;47.20
18287;DHT22;9269;50.838;12.094;2023-03-04T16:05:34;8.80;47.60
18287;DHT22;9269;50.838;12.094;2023-03-04T16:08:04;8.90;47.70
18287;DHT22;9269;50.838;12.094;2023-03-04T16:10:33;8.70;47.60
18287;DHT22;9269;50.838;12.094;2023-03-04T16:13:01;8.70;48.10
18287;DHT22;9269;50.838;12.094;2023-03-04T16:15:30;8.60;48.40
18287;DHT22;9269;50.838;12.094;2023-03-04T16:17:59;8.60;48.20
18287;DHT22;9269;50.838;12.094;2023-03-04T16:20:28;8.70;49.00
18287;DHT22;9269;50.838;12.094;2023-03-04T16:22:58;8.60;49.00
18287;DHT22;9269;50.838;12.094;2023-03-04T16:25:27;8.60;48.90
18287;DHT22;9269;50.838;12.094;2023-03-04T16:27:56;8.60;49.20
18287;DHT22;9269;50.838;12.094;2023-03-04T16:30:29;8.50;49.10